Time;durP1;ratioP1;P1;durP2;ratioP2;P2;SDS_P1;SDS_P2;PMS_P1;PMS_P2;Temp;Humidity;BMP_temperature;BMP_pressure;BME280_temperature;BME280_humidity;BME280_pressure;Samples;Min_cycle;Max_cycle;Signal;HPM_P1;HPM_P2
2023/07/21 00:01:36;;;;;;;6.70;4.53;;;;;;;24.33;68.93;94669.25;5131783;27;20706;-86
2023/07/21 00:04:04;;;;;;;7.47;4.77;;;;;;;24.24;69.18;94663.28;5111265;28;20475;-86
2023/07/21 00:06:31;;;;;;;7.53;5.77;;;;;;;24.20;69.88;94658.59;5111355;28;20551;-86
2023/07/21 00:08:57;;;;;;;9.10;4.50;;;;;;;24.17;69.51;94664.38;5111334;28;20450;-86
2023/07/21 00:11:24;;;;;;;6.97;4.97;;;;;;;24.14;69.58;94660.28;5075416;28;20442;-86
2023/07/21 00:13:51;;;;;;;6.53;4.83;;;;;;;24.12;69.89;94664.22;5111458;28;20809;-86
2023/07/21 00:16:18;;;;;;;5.60;4.57;;;;;;;24.07;70.50;94652.31;5111785;28;20438;-86
2023/07/21 00:18:48;;;;;;;4.93;4.43;;;;;;;24.04;70.05;94650.06;5110940;28;20791;-86
2023/07/21 00:21:15;;;;;;;6.80;4.50;;;;;;;23.97;70.83;94648.44;5110964;28;20535;-86
2023/07/21 00:23:43;;;;;;;6.97;4.80;;;;;;;23.94;70.55;94644.34;5111220;28;20442;-86
2023/07/21 00:26:09;;;;;;;7.53;4.83;;;;;;;23.89;70.85;94636.16;5111640;28;20426;-86
2023/07/21 00:28:36;;;;;;;7.93;5.17;;;;;;;23.93;70.98;94645.38;5075264;28;20449;-86
2023/07/21 00:31:03;;;;;;;4.93;4.53;;;;;;;23.92;70.46;94640.25;5110631;28;20500;-86
2023/07/21 00:33:30;;;;;;;9.87;5.53;;;;;;;23.87;70.62;94632.88;5110496;28;20526;-86
2023/07/21 00:35:58;;;;;;;9.53;4.63;;;;;;;23.90;70.83;94632.44;5110279;28;20919;-86
2023/07/21 00:38:25;;;;;;;10.77;5.60;;;;;;;23.86;71.09;94628.56;5110619;28;20825;-86
2023/07/21 00:40:52;;;;;;;11.37;5.03;;;;;;;23.84;71.28;94627.94;5110607;28;20469;-86
2023/07/21 00:43:19;;;;;;;9.47;5.00;;;;;;;23.83;71.56;94623.63;5110528;28;20461;-86
2023/07/21 00:45:47;;;;;;;7.93;5.40;;;;;;;23.76;71.94;94629.03;5110137;28;20437;-86
2023/07/21 00:48:17;;;;;;;5.87;5.40;;;;;;;23.72;72.20;94629.69;5109928;28;20930;-86
2023/07/21 00:50:46;;;;;;;10.80;5.00;;;;;;;23.69;71.67;94630.09;5109938;28;20476;-86
2023/07/21 00:53:15;;;;;;;5.80;4.50;;;;;;;23.71;71.85;94636.91;5110393;28;20429;-86
2023/07/21 00:55:43;;;;;;;6.90;4.60;;;;;;;23.75;71.92;94637.31;5074623;28;20456;-86
2023/07/21 00:58:10;;;;;;;8.63;5.00;;;;;;;23.68;71.70;94636.50;5111065;28;20434;-86
2023/07/21 01:00:37;;;;;;;7.03;5.50;;;;;;;23.66;71.98;94623.31;5120425;27;20476;-86
2023/07/21 01:03:06;;;;;;;6.40;5.80;;;;;;;23.61;71.91;94608.94;5116832;28;20505;-86
2023/07/21 01:05:35;;;;;;;8.37;5.30;;;;;;;23.60;71.84;94618.03;5116572;28;20438;-86
2023/07/21 01:08:04;;;;;;;5.37;4.83;;;;;;;23.56;72.36;94611.47;5116769;28;20429;-86
2023/07/21 01:10:34;;;;;;;5.97;5.37;;;;;;;23.53;72.45;94604.66;5065053;28;20482;-86
2023/07/21 01:13:02;;;;;;;6.90;5.50;;;;;;;23.58;72.31;94615.56;5081117;28;20490;-86
2023/07/21 01:15:30;;;;;;;5.57;5.07;;;;;;;23.58;71.95;94615.56;5117528;28;20450;-86
2023/07/21 01:17:59;;;;;;;7.77;4.70;;;;;;;23.57;72.31;94605.06;5116410;28;20440;-86
2023/07/21 01:20:27;;;;;;;6.20;4.93;;;;;;;23.54;72.18;94598.25;5116812;28;20951;-86
2023/07/21 01:22:58;;;;;;;8.23;4.87;;;;;;;23.52;72.09;94599.50;5116385;28;20460;-86
2023/07/21 01:25:28;;;;;;;7.57;5.00;;;;;;;23.49;72.00;94596.22;5116665;28;20526;-86
2023/07/21 01:27:56;;;;;;;6.73;4.70;;;;;;;23.43;72.11;94589.06;5116806;28;20462;-86
2023/07/21 01:30:23;;;;;;;9.50;5.27;;;;;;;23.44;72.36;94596.06;5116342;28;20475;-86
2023/07/21 01:32:52;;;;;;;8.33;6.07;;;;;;;23.40;72.20;94592.16;5117203;28;20436;-86
2023/07/21 01:35:19;;;;;;;6.50;5.50;;;;;;;23.39;72.43;94593.19;5080674;28;20934;-86
2023/07/21 01:37:49;;;;;;;6.07;5.13;;;;;;;23.39;72.41;94589.69;5116830;28;20466;-86
2023/07/21 01:40:17;;;;;;;7.17;5.03;;;;;;;23.38;72.83;94594.22;5116631;28;20462;-86
2023/07/21 01:42:47;;;;;;;5.53;4.53;;;;;;;23.37;72.80;94607.84;5116351;28;20479;-86
2023/07/21 01:45:15;;;;;;;6.70;6.00;;;;;;;23.34;73.07;94619.81;5063794;28;20440;-86
2023/07/21 01:47:44;;;;;;;7.23;5.37;;;;;;;23.15;73.98;94628.78;5116031;28;20432;-86
2023/07/21 01:50:13;;;;;;;7.77;5.73;;;;;;;23.06;74.73;94638.06;5115895;28;20505;-86
2023/07/21 01:52:40;;;;;;;6.57;5.97;;;;;;;23.09;75.03;94634.97;5115936;28;20444;-87
2023/07/21 01:55:14;;;;;;;9.90;5.80;;;;;;;23.09;75.00;94641.13;5116312;28;20413;-86
2023/07/21 01:57:49;;;;;;;5.47;4.97;;;;;;;23.12;75.17;94643.38;5115895;28;20440;-86
2023/07/21 02:00:17;;;;;;;9.20;6.50;;;;;;;23.12;75.04;94647.91;5115547;28;20485;-86
2023/07/21 02:02:46;;;;;;;6.23;5.43;;;;;;;23.00;75.31;94641.59;5115529;28;20433;-86
2023/07/21 02:05:20;;;;;;;7.10;5.90;;;;;;;22.90;75.46;94641.25;5115951;28;20443;-86
2023/07/21 02:07:47;;;;;;;6.37;4.63;;;;;;;22.86;75.68;94649.69;5115396;28;20916;-86
2023/07/21 02:10:14;;;;;;;6.07;5.57;;;;;;;22.83;76.24;94652.78;5116075;28;20501;-86
2023/07/21 02:12:41;;;;;;;9.90;5.90;;;;;;;22.83;76.47;94651.94;5114641;28;20428;-86
2023/07/21 02:15:10;;;;;;;7.17;5.53;;;;;;;22.88;76.64;94657.50;5115304;28;20804;-86
2023/07/21 02:17:37;;;;;;;9.27;6.87;;;;;;;22.89;76.74;94661.84;5063608;28;20951;-87
2023/07/21 02:20:09;;;;;;;9.70;6.77;;;;;;;22.91;76.94;94657.09;5115540;28;20787;-87
2023/07/21 02:22:37;;;;;;;7.80;6.90;;;;;;;22.93;77.23;94659.56;5115380;28;20436;-86
2023/07/21 02:25:03;;;;;;;7.53;5.80;;;;;;;22.90;77.28;94654.63;5115080;28;20803;-86
2023/07/21 02:27:30;;;;;;;5.60;5.10;;;;;;;22.88;76.89;94651.34;5115235;28;20437;-86
2023/07/21 02:29:57;;;;;;;8.50;5.30;;;;;;;22.89;76.62;94653.81;5114920;28;20506;-86
2023/07/21 02:32:25;;;;;;;8.57;5.63;;;;;;;22.88;75.87;94654.03;5114931;28;20940;-86
2023/07/21 02:34:52;;;;;;;7.47;5.40;;;;;;;22.84;76.06;94646.41;5079597;28;20427;-86
2023/07/21 02:37:21;;;;;;;5.80;5.20;;;;;;;22.79;76.18;94653.38;5115338;28;20444;-86
2023/07/21 02:39:48;;;;;;;5.63;4.63;;;;;;;22.77;76.34;94644.75;5115316;28;20896;-86
2023/07/21 02:42:14;;;;;;;7.53;6.00;;;;;;;22.77;76.83;94639.38;5114895;28;20434;-86
2023/07/21 02:44:40;;;;;;;8.50;6.03;;;;;;;22.72;76.73;94639.22;5062702;28;20452;-86
2023/07/21 02:47:09;;;;;;;6.10;4.93;;;;;;;22.72;76.54;94640.03;5114603;28;20983;-86
2023/07/21 02:49:37;;;;;;;6.83;5.23;;;;;;;22.70;76.80;94644.78;5063020;28;20450;-86
2023/07/21 02:52:05;;;;;;;8.50;6.03;;;;;;;22.72;76.54;94642.72;5114461;28;20811;-87
2023/07/21 02:54:32;;;;;;;7.37;5.73;;;;;;;22.66;76.48;94632.03;5114463;28;20539;-86
2023/07/21 02:56:59;;;;;;;6.70;5.50;;;;;;;22.75;76.45;94641.47;5114612;28;20428;-86
2023/07/21 02:59:27;;;;;;;6.57;5.60;;;;;;;22.71;76.59;94645.59;5114439;28;20467;-86
2023/07/21 03:01:56;;;;;;;8.40;5.63;;;;;;;22.64;76.58;94642.94;5114734;28;20842;-86
2023/07/21 03:04:23;;;;;;;8.70;6.30;;;;;;;22.66;76.83;94646.22;5114514;28;20442;-86
2023/07/21 03:06:51;;;;;;;7.20;5.37;;;;;;;22.58;76.62;94643.78;5114732;28;20415;-86
2023/07/21 03:09:18;;;;;;;8.17;6.07;;;;;;;22.57;76.61;94639.47;5114523;28;20908;-88
2023/07/21 03:11:45;;;;;;;8.37;5.27;;;;;;;22.52;76.66;94645.44;5114462;28;20472;-80
2023/07/21 03:14:12;;;;;;;8.20;5.10;;;;;;;22.48;76.51;94652.22;5114514;28;20470;-81
2023/07/21 03:16:39;;;;;;;7.90;5.37;;;;;;;22.59;79.01;94652.63;5115037;28;20433;-83
2023/07/21 03:19:06;;;;;;;5.60;5.20;;;;;;;22.82;78.30;94648.44;5114376;28;20424;-83
2023/07/21 03:21:33;;;;;;;9.63;5.80;;;;;;;23.34;76.27;94646.59;5114802;28;20832;-84
2023/07/21 03:24:02;;;;;;;6.23;4.90;;;;;;;23.79;74.11;94651.91;5113628;28;20440;-83
2023/07/21 03:26:29;;;;;;;5.67;4.80;;;;;;;24.16;71.32;94654.69;5114399;28;20449;-83
2023/07/21 03:28:56;;;;;;;6.37;4.90;;;;;;;24.53;69.35;94659.13;5095366;28;20781;-84
2023/07/21 03:31:23;;;;;;;10.73;5.40;;;;;;;24.77;67.87;94664.66;5113916;28;20989;-84
2023/07/21 03:33:50;;;;;;;5.40;4.90;;;;;;;25.01;67.22;94661.13;5114009;28;20928;-83
2023/07/21 03:36:19;;;;;;;5.57;5.00;;;;;;;25.38;66.01;94669.13;5113958;28;20913;-84
2023/07/21 03:38:46;;;;;;;5.10;4.70;;;;;;;25.41;64.02;94672.16;5113590;28;20439;-83
2023/07/21 03:41:15;;;;;;;7.13;4.77;;;;;;;25.33;64.34;94670.63;5114111;28;20439;-84
2023/07/21 03:43:42;;;;;;;8.43;5.07;;;;;;;25.16;63.82;94668.81;5114517;28;20439;-84
2023/07/21 03:46:09;;;;;;;5.87;5.00;;;;;;;24.89;64.47;94677.13;5078385;28;21012;-84
2023/07/21 03:48:36;;;;;;;8.73;5.80;;;;;;;24.71;64.79;94677.94;5114101;28;20442;-84
2023/07/21 03:51:05;;;;;;;6.50;5.47;;;;;;;24.33;66.51;94680.78;5113639;28;20470;-84
2023/07/21 03:53:32;;;;;;;11.20;6.27;;;;;;;23.95;68.38;94686.19;5113650;28;20945;-84
2023/07/21 03:55:59;;;;;;;9.00;5.57;;;;;;;23.29;71.67;94686.56;5113891;28;20436;-84
2023/07/21 03:58:27;;;;;;;11.60;6.20;;;;;;;23.04;73.56;94699.84;5114602;28;20434;-84
2023/07/21 04:00:55;;;;;;;14.60;7.20;;;;;;;22.86;75.69;94697.88;5114128;28;20566;-86
2023/07/21 04:03:24;;;;;;;17.80;6.93;;;;;;;22.83;75.73;94694.75;5114624;28;20454;-85
2023/07/21 04:05:51;;;;;;;13.63;6.70;;;;;;;22.86;76.11;94699.72;5113878;28;20918;-86
2023/07/21 04:08:18;;;;;;;8.23;7.20;;;;;;;22.77;76.38;94711.63;5113451;28;20818;-85
2023/07/21 04:10:45;;;;;;;13.60;6.83;;;;;;;22.72;77.13;94711.44;5113496;28;20558;-88
2023/07/21 04:13:12;;;;;;;11.07;7.17;;;;;;;22.72;77.45;94709.59;5115063;28;20450;-88
2023/07/21 04:15:41;;;;;;;7.73;6.80;;;;;;;22.80;77.60;94713.88;5113547;28;20443;-87
2023/07/21 04:18:07;;;;;;;15.00;7.17;;;;;;;22.88;77.84;94713.72;5113522;28;20439;-87
2023/07/21 04:20:34;;;;;;;12.53;6.70;;;;;;;23.20;77.94;94717.31;5113249;28;20433;-84
2023/07/21 04:23:02;;;;;;;9.27;6.40;;;;;;;23.71;77.40;94708.44;5113784;28;20486;-89
2023/07/21 04:25:29;;;;;;;11.17;5.53;;;;;;;24.37;74.31;94708.00;5113729;28;20437;-90
2023/07/21 04:27:58;;;;;;;8.87;6.70;;;;;;;25.15;70.65;94724.34;5114323;28;20437;-89
2023/07/21 04:30:26;;;;;;;9.00;5.83;;;;;;;25.85;68.11;94724.75;5113359;28;21007;-90
2023/07/21 04:32:58;;;;;;;8.27;5.90;;;;;;;26.31;64.38;94720.56;5113882;28;20447;-86
2023/07/21 04:35:25;;;;;;;5.77;5.27;;;;;;;26.57;61.95;94726.56;5113792;28;20466;-86
2023/07/21 04:37:55;;;;;;;7.43;4.97;;;;;;;26.81;61.07;94722.81;5064736;28;20946;-85
2023/07/21 04:40:22;;;;;;;6.20;5.53;;;;;;;27.08;59.89;94713.22;5116793;28;20438;-83
2023/07/21 04:42:50;;;;;;;5.70;5.07;;;;;;;27.36;60.57;94715.16;5117972;28;20439;-85
2023/07/21 04:45:17;;;;;;;11.50;6.13;;;;;;;27.73;65.95;94718.34;5116978;28;20427;-90
2023/07/21 04:47:49;;;;;;;5.70;5.20;;;;;;;27.99;58.38;94705.34;5064896;28;20450;-85
2023/07/21 04:50:17;;;;;;;16.00;6.47;;;;;;;28.27;56.10;94712.63;5117338;28;20496;-86
2023/07/21 04:56:09;;;;;;;6.67;5.13;;;;;;;28.78;56.52;94700.75;5116815;28;20447;-81
2023/07/21 04:58:37;;;;;;;6.07;5.53;;;;;;;29.08;55.77;94703.09;5117320;28;20776;-85
2023/07/21 05:01:04;;;;;;;6.70;5.47;;;;;;;29.37;53.26;94709.16;5116928;28;20483;-85
2023/07/21 05:03:31;;;;;;;12.00;5.30;;;;;;;29.69;53.48;94713.91;5077415;28;20435;-85
2023/07/21 05:05:59;;;;;;;9.00;5.60;;;;;;;29.99;54.50;94711.53;5096123;28;20450;-84
2023/07/21 05:08:28;;;;;;;8.87;4.90;;;;;;;30.35;50.71;94709.19;5096421;28;20424;-84
2023/07/21 05:10:56;;;;;;;5.93;4.90;;;;;;;30.69;50.96;94715.19;5108314;28;20474;-84
2023/07/21 05:13:26;;;;;;;6.93;5.20;;;;;;;30.98;48.69;94710.25;5116228;28;20439;-84
2023/07/21 05:15:54;;;;;;;7.50;5.13;;;;;;;31.23;47.71;94709.63;5116451;28;20515;-84
2023/07/21 05:18:21;;;;;;;7.23;5.33;;;;;;;31.42;48.56;94717.03;5116961;28;20871;-84
2023/07/21 05:20:49;;;;;;;7.80;5.00;;;;;;;31.57;47.57;94716.28;5116403;28;20431;-84
2023/07/21 05:23:18;;;;;;;5.47;4.97;;;;;;;31.74;45.76;94716.91;5116068;28;20905;-84
2023/07/21 05:25:44;;;;;;;7.50;4.90;;;;;;;31.90;45.71;94714.25;5117093;28;20423;-84
2023/07/21 05:28:14;;;;;;;7.00;6.30;;;;;;;32.08;46.71;94711.03;5115947;28;20435;-84
2023/07/21 05:30:45;;;;;;;5.73;5.20;;;;;;;32.23;44.85;94711.06;5115783;28;20431;-84
2023/07/21 05:33:13;;;;;;;7.13;5.53;;;;;;;32.32;44.85;94714.91;5063992;28;20431;-84
2023/07/21 05:35:42;;;;;;;7.00;4.70;;;;;;;32.43;44.56;94707.59;5116579;28;20427;-84
2023/07/21 05:38:13;;;;;;;8.10;5.20;;;;;;;32.49;44.82;94716.56;5116612;28;20435;-85
2023/07/21 05:40:46;;;;;;;6.67;4.83;;;;;;;32.50;44.38;94710.84;5116079;28;20828;-85
2023/07/21 05:43:16;;;;;;;6.23;5.53;;;;;;;32.34;46.21;94720.88;5116878;28;20441;-85
2023/07/21 05:45:45;;;;;;;7.03;4.83;;;;;;;32.54;46.54;94714.66;5116012;28;20438;-85
2023/07/21 05:48:16;;;;;;;16.23;6.20;;;;;;;31.81;47.08;94724.81;5116045;28;20415;-84
2023/07/21 05:50:43;;;;;;;9.57;5.93;;;;;;;31.07;49.59;94730.34;5115930;28;20428;-84
2023/07/21 05:53:11;;;;;;;12.10;7.17;;;;;;;30.98;50.29;94737.34;5081177;28;20458;-84
2023/07/21 05:55:50;;;;;;;9.43;6.33;;;;;;;30.77;49.29;94726.38;5116604;28;20435;-84
2023/07/21 05:58:18;;;;;;;9.40;6.00;;;;;;;30.71;49.83;94735.53;5049850;28;20450;-84
2023/07/21 06:00:48;;;;;;;11.40;6.87;;;;;;;30.05;51.90;94736.78;5115632;28;20562;-84
2023/07/21 06:03:18;;;;;;;9.70;6.67;;;;;;;29.85;52.58;94731.94;5115512;28;20435;-84
2023/07/21 06:05:49;;;;;;;6.80;5.83;;;;;;;30.03;52.61;94733.50;5081299;28;20435;-84
2023/07/21 06:08:17;;;;;;;14.33;6.17;;;;;;;30.47;51.90;94731.50;5115748;28;20442;-84
2023/07/21 06:10:47;;;;;;;8.03;6.30;;;;;;;30.64;50.94;94723.25;5115622;28;20431;-84
2023/07/21 06:13:14;;;;;;;10.53;5.97;;;;;;;30.38;50.77;94733.06;5115343;28;20439;-84
2023/07/21 06:15:49;;;;;;;9.13;6.87;;;;;;;30.25;51.37;94734.28;5116397;28;20435;-84
2023/07/21 06:18:16;;;;;;;6.43;5.83;;;;;;;30.37;51.40;94734.13;5087069;28;20435;-84
2023/07/21 06:20:49;;;;;;;8.50;6.57;;;;;;;30.23;51.83;94732.91;5114372;28;20450;-84
2023/07/21 06:23:19;;;;;;;12.17;6.97;;;;;;;30.15;51.84;94720.66;5094942;28;20439;-83
2023/07/21 06:25:47;;;;;;;11.47;6.80;;;;;;;30.42;52.69;94721.44;5114948;28;20439;-84
2023/07/21 06:28:18;;;;;;;11.47;7.83;;;;;;;30.57;51.62;94718.03;5114699;28;20918;-84
2023/07/21 06:30:45;;;;;;;8.87;7.30;;;;;;;30.53;51.25;94723.16;5114297;28;20802;-84
2023/07/21 06:33:12;;;;;;;10.67;7.77;;;;;;;30.20;52.88;94712.56;5114399;28;20447;-85
2023/07/21 06:35:43;;;;;;;13.03;6.87;;;;;;;29.35;54.77;94714.00;5114246;28;20443;-85
2023/07/21 06:38:11;;;;;;;14.37;7.10;;;;;;;29.54;55.76;94709.13;5114108;28;20450;-84
2023/07/21 06:40:39;;;;;;;9.30;7.33;;;;;;;29.57;54.73;94712.16;5113912;28;20447;-84
2023/07/21 06:43:09;;;;;;;16.83;7.80;;;;;;;29.99;54.22;94705.28;5061503;28;20423;-84
2023/07/21 06:45:39;;;;;;;10.77;8.40;;;;;;;30.49;54.42;94699.56;5114141;28;20445;-84
2023/07/21 06:48:08;;;;;;;11.70;6.13;;;;;;;30.70;51.84;94711.41;5077956;28;20439;-84
2023/07/21 06:50:38;;;;;;;14.10;7.10;;;;;;;30.71;51.54;94713.03;5113872;28;20439;-84
2023/07/21 06:53:05;;;;;;;8.70;7.40;;;;;;;30.83;51.16;94711.78;5113880;28;20482;-84
2023/07/21 06:55:32;;;;;;;15.33;7.13;;;;;;;30.93;52.15;94718.31;5113778;28;20909;-84
2023/07/21 06:58:02;;;;;;;8.93;6.23;;;;;;;30.88;51.87;94723.72;5114156;28;20478;-84
2023/07/21 07:00:30;;;;;;;12.93;7.07;;;;;;;31.30;51.30;94718.31;5112828;28;20490;-84
2023/07/21 07:02:57;;;;;;;16.70;7.37;;;;;;;31.54;49.51;94722.25;5113734;28;20439;-84
2023/07/21 07:05:24;;;;;;;9.73;6.57;;;;;;;31.70;48.27;94709.53;5113642;28;20957;-86
2023/07/21 07:07:53;;;;;;;10.67;7.20;;;;;;;31.49;48.65;94718.66;5061348;28;20447;-84
2023/07/21 07:10:19;;;;;;;10.20;6.77;;;;;;;31.81;46.72;94716.69;5113285;28;20439;-83
2023/07/21 07:12:50;;;;;;;8.07;6.70;;;;;;;32.00;47.43;94715.09;5114093;28;20474;-84
2023/07/21 07:15:18;;;;;;;7.67;5.73;;;;;;;32.24;46.44;94704.53;5114095;28;20427;-85
2023/07/21 07:17:46;;;;;;;11.90;6.60;;;;;;;32.38;45.84;94702.13;5114271;28;20439;-84
2023/07/21 07:20:13;;;;;;;11.27;6.83;;;;;;;32.05;46.32;94704.22;5114352;28;20439;-84
2023/07/21 07:22:40;;;;;;;11.03;7.20;;;;;;;32.20;45.47;94703.47;5113883;28;20439;-84
2023/07/21 07:25:07;;;;;;;12.33;7.20;;;;;;;31.86;46.74;94700.41;5113980;28;20530;-84
2023/07/21 07:27:34;;;;;;;6.10;5.40;;;;;;;32.00;48.20;94697.97;5078646;28;20491;-86
2023/07/21 07:30:01;;;;;;;8.10;5.80;;;;;;;32.39;47.33;94702.97;5113848;28;20480;-85
2023/07/21 07:32:31;;;;;;;7.63;6.67;;;;;;;32.43;44.83;94696.72;5114307;28;20503;-85
2023/07/21 07:34:59;;;;;;;8.90;6.40;;;;;;;32.44;45.87;94692.94;5114290;28;20439;-85
2023/07/21 07:37:29;;;;;;;7.80;6.10;;;;;;;32.54;46.32;94697.53;5113268;28;20922;-85
2023/07/21 07:39:56;;;;;;;7.57;6.07;;;;;;;32.75;44.92;94704.59;5113980;28;20800;-85
2023/07/21 07:42:28;;;;;;;11.50;6.10;;;;;;;32.91;45.04;94708.13;5113899;28;20522;-85
2023/07/21 07:44:58;;;;;;;7.77;5.90;;;;;;;32.74;44.12;94686.66;5113915;28;20436;-85
2023/07/21 07:47:25;;;;;;;7.90;7.10;;;;;;;32.73;43.13;94692.38;5063267;28;20443;-85
2023/07/21 07:49:52;;;;;;;10.03;6.50;;;;;;;32.81;44.61;94697.28;5113756;28;20804;-85
2023/07/21 07:52:20;;;;;;;7.90;5.70;;;;;;;32.34;42.91;94692.91;5113940;28;20486;-85
2023/07/21 07:54:47;;;;;;;7.43;5.70;;;;;;;32.30;44.31;94691.81;5114262;28;20419;-84
2023/07/21 07:57:15;;;;;;;10.70;5.50;;;;;;;32.44;43.96;94692.94;5114563;28;20437;-85
2023/07/21 07:59:43;;;;;;;6.67;5.30;;;;;;;32.29;42.32;94699.16;5113931;28;20632;-85
2023/07/21 08:02:10;;;;;;;8.60;5.10;;;;;;;32.34;43.04;94688.28;5114150;28;20488;-85
2023/07/21 08:04:37;;;;;;;13.77;6.27;;;;;;;32.58;43.25;94693.19;5113688;28;20438;-85
2023/07/21 08:07:04;;;;;;;9.20;5.47;;;;;;;32.87;42.87;94682.59;5113811;28;20435;-85
2023/07/21 08:09:32;;;;;;;11.27;5.43;;;;;;;33.03;41.81;94688.81;5113459;28;20788;-85
2023/07/21 08:11:59;;;;;;;8.07;5.20;;;;;;;33.25;41.15;94678.41;5116043;28;20827;-85
2023/07/21 08:14:26;;;;;;;12.50;5.70;;;;;;;33.40;41.24;94688.47;5118220;28;20449;-89
2023/07/21 08:16:52;;;;;;;6.83;5.77;;;;;;;33.47;41.97;94691.72;5082785;28;20851;-88
2023/07/21 08:19:20;;;;;;;11.30;6.53;;;;;;;33.58;42.31;94692.50;5118564;28;20454;-84
2023/07/21 08:21:48;;;;;;;6.87;6.17;;;;;;;33.40;43.01;94688.47;5118524;28;20429;-86
2023/07/21 08:24:16;;;;;;;12.10;5.87;;;;;;;33.56;42.19;94695.50;5117677;28;20806;-83
2023/07/21 08:26:44;;;;;;;7.40;5.83;;;;;;;33.74;43.07;94697.59;5117884;28;20434;-86
2023/07/21 08:29:11;;;;;;;9.53;5.90;;;;;;;33.87;41.80;94701.66;5117671;28;20442;-86
2023/07/21 08:31:37;;;;;;;14.73;6.43;;;;;;;33.41;41.61;94696.34;5065463;28;20955;-87
2023/07/21 08:34:04;;;;;;;6.97;5.40;;;;;;;33.49;43.24;94694.97;5117636;28;20427;-87
2023/07/21 08:36:31;;;;;;;5.60;5.07;;;;;;;33.58;41.49;94689.78;5117312;28;20431;-86
2023/07/21 08:38:58;;;;;;;6.10;5.50;;;;;;;33.75;41.92;94698.41;5117139;28;20501;-87
2023/07/21 08:41:26;;;;;;;9.40;5.77;;;;;;;33.67;41.64;94694.34;5117178;28;20439;-88
2023/07/21 08:43:56;;;;;;;11.43;6.30;;;;;;;33.78;41.24;94689.66;5118221;28;20829;-87
2023/07/21 08:46:24;;;;;;;7.70;5.40;;;;;;;33.76;41.85;94686.41;5117686;28;20446;-89
2023/07/21 08:48:54;;;;;;;11.30;6.93;;;;;;;33.67;41.22;94688.91;5118583;28;20488;-90
2023/07/21 08:51:21;;;;;;;21.63;7.10;;;;;;;33.65;42.08;94693.00;5122103;28;20419;-89
2023/07/21 08:53:48;;;;;;;7.10;6.03;;;;;;;33.39;42.67;94692.28;5085222;28;20514;-85
2023/07/21 08:56:14;;;;;;;12.57;7.10;;;;;;;33.48;42.38;94680.53;5119738;27;20439;-85
2023/07/21 08:58:41;;;;;;;9.50;6.13;;;;;;;33.39;42.91;94689.56;5117050;28;20454;-85
2023/07/21 09:01:09;;;;;;;11.07;6.63;;;;;;;32.92;44.16;94685.28;5116196;28;20529;-84
2023/07/21 09:03:36;;;;;;;13.17;6.50;;;;;;;32.68;43.23;94695.09;5116584;28;20454;-86
2023/07/21 09:06:04;;;;;;;7.27;5.67;;;;;;;32.92;45.05;94682.56;5116287;28;20450;-85
2023/07/21 09:08:34;;;;;;;10.17;6.13;;;;;;;32.84;44.44;94681.25;5116500;28;20450;-86
2023/07/21 09:11:02;;;;;;;7.50;6.27;;;;;;;32.64;44.39;94684.75;5116904;28;20431;-85
2023/07/21 09:13:29;;;;;;;7.47;5.37;;;;;;;32.91;43.86;94675.50;5116850;28;20818;-85
2023/07/21 09:15:59;;;;;;;6.93;5.70;;;;;;;33.01;44.70;94683.66;5116232;28;20920;-85
2023/07/21 09:18:30;;;;;;;10.10;6.97;;;;;;;32.89;43.95;94688.56;5097920;28;20531;-85
2023/07/21 09:20:57;;;;;;;13.20;6.67;;;;;;;32.71;43.67;94672.81;5080725;28;20443;-85
2023/07/21 09:23:26;;;;;;;7.77;5.40;;;;;;;32.63;43.55;94669.53;5115230;28;20810;-85
2023/07/21 09:25:54;;;;;;;22.73;6.53;;;;;;;32.71;43.25;94675.53;5113821;28;20997;-85
2023/07/21 09:28:21;;;;;;;14.00;6.30;;;;;;;32.79;43.06;94675.81;5115598;28;20478;-85
2023/07/21 09:30:53;;;;;;;11.37;6.03;;;;;;;32.74;43.35;94674.97;5116460;28;20447;-85
2023/07/21 09:33:25;;;;;;;7.80;6.10;;;;;;;32.73;45.03;94678.78;5115616;28;20485;-85
2023/07/21 09:36:04;;;;;;;11.53;5.97;;;;;;;32.67;44.84;94669.81;5116542;28;20459;-86
2023/07/21 09:38:31;;;;;;;15.27;6.00;;;;;;;32.64;44.40;94663.00;5116348;28;20478;-85
2023/07/21 09:41:01;;;;;;;10.93;6.63;;;;;;;32.80;43.65;94669.28;5115818;28;20492;-86
2023/07/21 09:43:29;;;;;;;14.40;6.10;;;;;;;32.92;43.78;94671.69;5115950;28;20435;-85
2023/07/21 09:45:57;;;;;;;10.30;6.17;;;;;;;32.88;43.60;94660.56;5115557;28;20447;-86
2023/07/21 09:48:25;;;;;;;7.90;7.10;;;;;;;32.87;44.00;94658.94;5116658;28;20968;-85
2023/07/21 09:50:57;;;;;;;7.40;6.20;;;;;;;32.98;43.84;94654.31;5115784;28;20427;-86
2023/07/21 09:53:25;;;;;;;8.33;6.10;;;;;;;32.99;43.34;94653.22;5115319;28;20475;-85
2023/07/21 09:55:55;;;;;;;11.80;5.80;;;;;;;33.01;43.15;94656.47;5064226;28;20439;-86
2023/07/21 09:58:26;;;;;;;6.40;5.80;;;;;;;32.99;44.29;94650.50;5113726;28;20435;-85
2023/07/21 10:00:54;;;;;;;14.30;6.23;;;;;;;32.82;44.13;94649.97;5114451;28;20976;-85
2023/07/21 10:03:22;;;;;;;16.27;6.53;;;;;;;32.83;44.22;94647.00;5114492;28;20462;-84
2023/07/21 10:05:50;;;;;;;6.40;5.20;;;;;;;32.78;43.22;94646.16;5114601;28;20477;-85
2023/07/21 10:08:18;;;;;;;10.07;6.10;;;;;;;32.63;43.77;94652.41;5114416;28;20447;-85
2023/07/21 10:10:45;;;;;;;7.63;6.10;;;;;;;32.63;44.19;94650.50;5114466;28;20443;-85
2023/07/21 10:13:12;;;;;;;6.93;6.23;;;;;;;32.53;43.12;94645.09;5114639;28;20482;-84
2023/07/21 10:15:40;;;;;;;9.23;7.40;;;;;;;32.46;44.41;94650.00;5114591;28;20441;-85
2023/07/21 10:18:10;;;;;;;6.20;5.20;;;;;;;32.56;44.08;94635.59;5114450;28;20454;-85
2023/07/21 10:20:39;;;;;;;13.50;5.50;;;;;;;32.63;43.65;94641.53;5114290;28;20443;-84
2023/07/21 10:23:06;;;;;;;9.50;6.10;;;;;;;32.70;43.78;94638.56;5114095;28;20443;-85
2023/07/21 10:25:58;;;;;;;7.50;5.90;;;;;;;32.83;42.97;94640.75;5114053;28;20467;-86
2023/07/21 10:28:31;;;;;;;6.80;5.93;;;;;;;32.87;43.01;94647.25;5114213;28;20458;-85
2023/07/21 10:31:36;;;;;;;14.13;6.27;;;;;;;32.78;41.20;94644.25;5061134;28;20930;-85
2023/07/21 10:34:10;;;;;;;11.30;6.13;;;;;;;32.73;42.18;94638.03;5112855;28;20883;-85
2023/07/21 10:36:41;;;;;;;6.70;6.00;;;;;;;32.78;42.26;94638.00;5114266;28;20478;-85
2023/07/21 10:39:10;;;;;;;8.50;6.00;;;;;;;32.77;42.36;94641.81;5113686;28;20447;-86
2023/07/21 10:41:39;;;;;;;14.43;5.60;;;;;;;32.80;41.89;94636.66;5113737;28;20937;-86
2023/07/21 10:44:07;;;;;;;8.93;5.30;;;;;;;32.94;41.48;94628.75;5113586;28;20530;-86
2023/07/21 10:46:37;;;;;;;5.93;5.37;;;;;;;32.98;41.32;94632.56;5077597;28;20440;-85
2023/07/21 10:49:05;;;;;;;6.20;4.80;;;;;;;33.02;40.80;94628.19;5113283;28;20449;-85
2023/07/21 10:51:32;;;;;;;14.80;6.37;;;;;;;33.15;40.76;94624.06;5113385;28;20450;-85
2023/07/21 10:53:59;;;;;;;9.23;6.00;;;;;;;33.16;40.01;94629.22;5061330;28;20479;-85
2023/07/21 10:56:25;;;;;;;8.43;5.80;;;;;;;33.16;38.99;94623.78;5113393;28;20435;-85
2023/07/21 10:58:57;;;;;;;7.80;5.70;;;;;;;33.28;39.89;94615.31;5113057;28;20447;-85
2023/07/21 11:01:24;;;;;;;7.57;6.17;;;;;;;33.40;39.74;94615.03;5062530;28;20528;-85
2023/07/21 11:03:51;;;;;;;6.47;5.67;;;;;;;33.42;38.69;94621.81;5113446;28;20447;-85
2023/07/21 11:06:18;;;;;;;6.50;5.90;;;;;;;33.28;38.98;94615.31;5113854;28;20447;-85
2023/07/21 11:08:45;;;;;;;8.60;6.50;;;;;;;33.28;39.91;94614.50;5113299;28;20446;-85
2023/07/21 11:11:12;;;;;;;8.30;6.20;;;;;;;33.12;38.78;94611.03;5113142;28;20801;-85
2023/07/21 11:13:39;;;;;;;6.10;5.50;;;;;;;33.15;39.06;94611.28;5113671;28;20555;-86
2023/07/21 11:16:07;;;;;;;6.57;5.50;;;;;;;33.19;39.02;94606.91;5113322;28;20504;-86
2023/07/21 11:18:34;;;;;;;15.33;6.07;;;;;;;33.32;38.87;94610.97;5060640;28;20431;-87
2023/07/21 11:21:01;;;;;;;6.80;5.20;;;;;;;33.50;38.51;94612.25;5113170;28;21051;-86
2023/07/21 11:23:28;;;;;;;15.43;6.70;;;;;;;33.62;38.21;94607.28;5113363;28;20470;-86
2023/07/21 11:26:04;;;;;;;6.00;5.40;;;;;;;33.81;38.21;94605.53;5113006;28;20431;-86
2023/07/21 11:28:31;;;;;;;6.50;5.70;;;;;;;33.96;36.70;94609.28;5113385;28;20430;-86
2023/07/21 11:31:00;;;;;;;9.10;5.77;;;;;;;34.10;36.10;94602.91;5112925;28;20443;-86
2023/07/21 11:33:41;;;;;;;13.00;6.47;;;;;;;34.16;34.38;94593.63;5113090;28;20486;-86
2023/07/21 11:36:16;;;;;;;7.17;6.47;;;;;;;33.98;35.36;94596.19;5112902;28;20477;-86
2023/07/21 11:38:43;;;;;;;18.60;6.13;;;;;;;33.99;34.48;94595.09;5113402;28;20504;-86
2023/07/21 11:41:10;;;;;;;11.60;6.40;;;;;;;34.06;35.34;94592.84;5112887;28;20964;-86